Time;durP1;ratioP1;P1;durP2;ratioP2;P2;SDS_P1;SDS_P2;PMS_P1;PMS_P2;Temp;Humidity;BMP_temperature;BMP_pressure;BME280_temperature;BME280_humidity;BME280_pressure;Samples;Min_cycle;Max_cycle;Signal;HPM_P1;HPM_P2
2020/12/24 00:00:04;;;;;;;196.77;107.32;;;3.30;99.90;;;;;;4960454;28;20038;-85
2020/12/24 00:02:30;;;;;;;203.90;106.70;;;3.20;99.90;;;;;;4965991;28;20026;-84
2020/12/24 00:04:56;;;;;;;192.52;102.57;;;2.80;99.90;;;;;;4989105;28;20046;-82
2020/12/24 00:07:22;;;;;;;190.50;106.00;;;2.90;99.90;;;;;;4972282;28;20034;-85
2020/12/24 00:09:47;;;;;;;197.93;102.53;;;3.00;99.90;;;;;;4960770;28;20461;-83
2020/12/24 00:12:14;;;;;;;190.05;101.57;;;3.20;99.90;;;;;;4974942;28;20494;-86
2020/12/24 00:14:41;;;;;;;180.82;96.72;;;3.30;99.90;;;;;;4975038;28;20192;-84
2020/12/24 00:17:07;;;;;;;186.10;101.00;;;3.40;99.90;;;;;;4972928;28;20030;-84
2020/12/24 00:19:35;;;;;;;179.38;102.18;;;3.30;99.90;;;;;;4978784;28;20035;-84
2020/12/24 00:22:02;;;;;;;176.68;100.70;;;3.50;99.90;;;;;;4954926;28;20039;-85
2020/12/24 00:24:27;;;;;;;183.95;98.50;;;3.40;99.90;;;;;;4972767;28;20038;-85
2020/12/24 00:26:53;;;;;;;166.10;91.05;;;3.20;99.90;;;;;;4955623;28;20035;-84
2020/12/24 00:29:19;;;;;;;168.02;91.57;;;3.20;99.90;;;;;;4971927;28;20027;-86
2020/12/24 00:31:45;;;;;;;162.75;85.40;;;3.20;99.90;;;;;;4955463;28;20038;-84
2020/12/24 00:34:11;;;;;;;142.95;81.65;;;3.20;99.90;;;;;;4955223;28;20042;-84
2020/12/24 00:36:39;;;;;;;135.05;77.03;;;3.10;99.90;;;;;;4973167;28;20027;-82
2020/12/24 00:39:04;;;;;;;130.20;74.70;;;3.00;99.90;;;;;;4955545;28;20382;-84
2020/12/24 00:41:30;;;;;;;150.82;81.10;;;3.10;99.90;;;;;;4972318;28;20493;-85
2020/12/24 00:43:56;;;;;;;147.23;81.80;;;3.00;99.90;;;;;;4955219;28;20027;-84
2020/12/24 00:46:22;;;;;;;139.50;76.60;;;3.00;99.90;;;;;;4972891;28;20126;-83
2020/12/24 00:48:48;;;;;;;141.18;73.75;;;3.00;99.90;;;;;;4954810;28;20034;-84
2020/12/24 00:51:13;;;;;;;128.40;70.55;;;2.80;99.90;;;;;;4955235;28;20023;-85
2020/12/24 00:53:39;;;;;;;133.05;70.85;;;3.10;99.90;;;;;;4956947;28;20476;-85
2020/12/24 00:56:06;;;;;;;122.28;69.30;;;3.20;99.90;;;;;;4958950;28;20122;-84
2020/12/24 00:58:33;;;;;;;118.15;67.05;;;3.40;99.90;;;;;;4959119;28;20031;-83
2020/12/24 01:00:58;;;;;;;115.82;65.05;;;3.40;99.90;;;;;;4975999;28;20051;-83
2020/12/24 01:03:24;;;;;;;117.50;65.38;;;3.30;99.90;;;;;;4975974;28;20076;-84
2020/12/24 01:05:50;;;;;;;112.10;63.17;;;3.00;99.90;;;;;;4959229;28;20030;-85
2020/12/24 01:08:16;;;;;;;113.30;62.45;;;2.80;99.90;;;;;;4958927;28;20034;-82
2020/12/24 01:10:42;;;;;;;109.55;61.88;;;2.80;99.90;;;;;;4958314;28;20034;-83
2020/12/24 01:13:08;;;;;;;103.53;59.97;;;2.90;99.90;;;;;;4958556;28;20031;-85
2020/12/24 01:15:33;;;;;;;95.32;53.35;;;2.90;99.90;;;;;;4959203;28;20538;-82
2020/12/24 01:17:59;;;;;;;95.72;53.42;;;2.90;99.90;;;;;;4958639;28;20030;-84
2020/12/24 01:20:27;;;;;;;90.22;48.22;;;2.80;99.90;;;;;;4958320;28;20026;-84
2020/12/24 01:22:53;;;;;;;77.15;41.05;;;2.80;99.90;;;;;;4958508;28;20031;-85
2020/12/24 01:25:19;;;;;;;70.97;42.85;;;2.80;99.90;;;;;;4958705;28;20030;-82
2020/12/24 01:27:45;;;;;;;82.60;42.15;;;2.50;99.90;;;;;;4976107;28;20364;-83
2020/12/24 01:30:10;;;;;;;76.70;41.55;;;2.50;99.90;;;;;;4959348;28;20435;-84
2020/12/24 01:32:36;;;;;;;77.95;43.05;;;2.20;99.90;;;;;;4976745;28;20436;-86
2020/12/24 01:35:02;;;;;;;74.70;41.47;;;2.20;99.90;;;;;;4959148;28;20023;-89
2020/12/24 01:37:28;;;;;;;73.97;41.88;;;2.20;99.90;;;;;;4976593;28;20363;-88
2020/12/24 01:39:54;;;;;;;86.95;44.85;;;2.20;99.90;;;;;;4958963;28;20026;-87
2020/12/24 01:42:20;;;;;;;96.57;46.85;;;2.10;99.90;;;;;;4959041;28;20479;-85
2020/12/24 01:44:47;;;;;;;90.18;46.85;;;2.30;99.90;;;;;;4959345;28;20463;-84
2020/12/24 01:47:14;;;;;;;86.10;45.75;;;2.30;99.90;;;;;;4975374;28;20026;-84
2020/12/24 01:49:40;;;;;;;86.45;46.25;;;2.30;99.90;;;;;;4958267;28;20027;-83
2020/12/24 01:52:11;;;;;;;88.18;46.15;;;2.50;99.90;;;;;;4975737;28;20387;-84
2020/12/24 01:54:37;;;;;;;75.25;43.03;;;2.70;99.90;;;;;;4957986;28;20035;-85
2020/12/24 01:57:03;;;;;;;84.22;43.95;;;2.50;99.90;;;;;;4958150;28;20027;-85
2020/12/24 01:59:32;;;;;;;83.22;43.53;;;2.50;99.90;;;;;;4958068;28;20054;-84
2020/12/24 02:01:57;;;;;;;78.78;41.83;;;2.80;99.90;;;;;;4975327;28;20046;-85
2020/12/24 02:04:23;;;;;;;74.03;42.22;;;2.80;99.90;;;;;;4957224;28;20035;-86
2020/12/24 02:06:49;;;;;;;102.47;40.83;;;2.70;99.90;;;;;;4957940;28;20026;-84
2020/12/24 02:09:15;;;;;;;85.13;37.13;;;2.60;99.90;;;;;;4957732;28;20035;-84
2020/12/24 02:11:43;;;;;;;74.78;38.53;;;2.50;99.90;;;;;;4957624;28;20054;-85
2020/12/24 02:14:08;;;;;;;68.32;40.60;;;2.70;99.90;;;;;;4958145;28;20034;-86
2020/12/24 02:16:35;;;;;;;83.90;41.92;;;2.70;99.90;;;;;;4975458;28;20043;-85
2020/12/24 02:19:04;;;;;;;77.40;41.83;;;2.80;99.90;;;;;;4975344;28;20046;-87
2020/12/24 02:21:31;;;;;;;75.30;40.03;;;2.90;99.90;;;;;;4974996;28;20037;-86
2020/12/24 02:23:57;;;;;;;69.28;37.75;;;3.00;99.90;;;;;;4958086;28;20042;-86
2020/12/24 02:26:22;;;;;;;71.13;39.17;;;3.00;99.90;;;;;;4964451;28;20022;-86
2020/12/24 02:28:48;;;;;;;79.57;40.75;;;3.00;99.90;;;;;;4994572;28;20524;-85
2020/12/24 02:31:14;;;;;;;75.05;38.78;;;3.00;99.90;;;;;;4977094;28;20034;-84
2020/12/24 02:33:40;;;;;;;76.10;38.92;;;2.80;99.90;;;;;;4977310;28;20026;-84
2020/12/24 02:36:06;;;;;;;69.18;39.33;;;2.80;99.90;;;;;;4976667;28;20506;-84
2020/12/24 02:38:32;;;;;;;71.63;39.30;;;2.70;99.90;;;;;;4993934;28;20425;-84
2020/12/24 02:40:58;;;;;;;60.13;36.85;;;2.80;99.90;;;;;;4976502;28;20038;-84
2020/12/24 02:43:24;;;;;;;70.90;36.47;;;2.70;99.90;;;;;;4976492;28;20034;-85
2020/12/24 02:45:51;;;;;;;72.75;36.33;;;2.80;99.90;;;;;;4994125;28;20072;-85
2020/12/24 02:48:19;;;;;;;64.18;37.15;;;2.60;99.90;;;;;;4976869;28;20066;-86
2020/12/24 02:50:45;;;;;;;68.00;36.28;;;2.50;99.90;;;;;;4976993;28;20031;-87
2020/12/24 02:53:11;;;;;;;68.32;36.47;;;2.60;99.90;;;;;;4977114;28;20041;-87
2020/12/24 02:55:36;;;;;;;64.43;36.53;;;2.60;99.90;;;;;;4976748;28;20030;-88
2020/12/24 02:58:04;;;;;;;77.43;38.28;;;2.50;99.90;;;;;;4993455;28;20038;-87
2020/12/24 03:00:30;;;;;;;77.90;38.88;;;2.50;99.90;;;;;;4994009;28;20022;-86
2020/12/24 03:02:56;;;;;;;71.13;39.75;;;2.50;99.90;;;;;;4976449;28;20046;-86
2020/12/24 03:05:22;;;;;;;70.07;36.78;;;2.80;99.90;;;;;;4976306;28;20371;-84
2020/12/24 03:07:54;;;;;;;67.90;36.60;;;2.80;99.90;;;;;;4976787;28;20077;-88
2020/12/24 03:10:20;;;;;;;72.43;38.63;;;3.00;99.90;;;;;;4994189;28;20031;-85
2020/12/24 03:13:01;;;;;;;73.72;38.60;;;3.00;99.90;;;;;;4975875;28;20477;-84
2020/12/24 03:15:30;;;;;;;76.57;38.92;;;3.10;99.90;;;;;;4976456;28;20029;-86
2020/12/24 03:17:55;;;;;;;75.40;36.15;;;3.00;99.90;;;;;;4972643;28;20023;-85
2020/12/24 03:20:21;;;;;;;66.15;36.40;;;2.90;99.90;;;;;;4976415;28;20037;-84
2020/12/24 03:22:47;;;;;;;63.20;36.85;;;3.00;99.90;;;;;;4975383;28;20554;-84
2020/12/24 03:25:12;;;;;;;76.32;36.25;;;2.40;99.90;;;;;;4993136;28;20026;-84
2020/12/24 03:27:38;;;;;;;76.25;35.15;;;2.60;99.90;;;;;;4976815;28;20022;-85
2020/12/24 03:30:07;;;;;;;64.03;35.92;;;2.70;99.90;;;;;;4956379;28;20034;-83
2020/12/24 03:32:33;;;;;;;67.25;34.58;;;2.90;99.90;;;;;;4956749;28;20030;-84
2020/12/24 03:34:59;;;;;;;71.20;35.17;;;2.70;99.90;;;;;;4956368;28;20058;-85
2020/12/24 03:37:25;;;;;;;74.68;36.03;;;2.90;99.90;;;;;;4973460;28;20027;-84
2020/12/24 03:40:40;;;;;;;77.53;36.00;;;2.90;99.90;;;;;;4974607;28;20062;-87
2020/12/24 03:43:06;;;;;;;74.55;34.90;;;2.90;99.90;;;;;;4956196;28;20038;-84
2020/12/24 03:45:31;;;;;;;67.97;34.50;;;2.90;99.90;;;;;;4956488;28;20033;-85
2020/12/24 03:47:57;;;;;;;71.10;36.78;;;2.90;99.90;;;;;;4956615;28;20033;-86
2020/12/24 03:50:23;;;;;;;73.40;36.88;;;3.10;99.90;;;;;;4956343;28;20019;-85
2020/12/24 03:52:49;;;;;;;69.65;33.25;;;3.10;99.90;;;;;;4956050;28;20033;-85
2020/12/24 03:55:15;;;;;;;82.38;34.83;;;3.10;99.90;;;;;;4956469;28;20031;-86
2020/12/24 03:57:40;;;;;;;75.32;34.80;;;3.10;99.90;;;;;;4956272;28;20039;-86
2020/12/24 04:00:06;;;;;;;70.00;35.30;;;3.00;99.90;;;;;;4956123;28;20382;-82
2020/12/24 04:02:32;;;;;;;71.13;34.90;;;3.00;99.90;;;;;;4973117;28;20039;-87
2020/12/24 04:04:58;;;;;;;73.10;35.65;;;3.00;99.90;;;;;;4973684;28;20073;-85
2020/12/24 04:07:23;;;;;;;73.60;34.08;;;3.00;99.90;;;;;;4972865;28;20070;-86
2020/12/24 04:09:49;;;;;;;66.82;32.40;;;2.90;99.90;;;;;;4956537;28;20039;-85
2020/12/24 04:12:15;;;;;;;70.43;34.55;;;2.80;99.90;;;;;;4956180;28;20125;-88
2020/12/24 04:14:41;;;;;;;81.80;35.25;;;3.00;99.90;;;;;;4957180;28;20118;-85
2020/12/24 04:17:07;;;;;;;67.60;34.03;;;2.50;99.90;;;;;;4955519;28;20118;-85
2020/12/24 04:19:33;;;;;;;76.07;32.65;;;2.50;99.90;;;;;;4956361;28;20145;-84
2020/12/24 04:21:59;;;;;;;90.50;34.63;;;2.20;99.90;;;;;;4955748;28;20060;-85
2020/12/24 04:24:24;;;;;;;67.47;36.05;;;2.50;99.90;;;;;;4955930;28;20475;-86
2020/12/24 04:26:55;;;;;;;70.28;35.33;;;2.70;99.90;;;;;;4956206;28;20121;-86
2020/12/24 04:29:20;;;;;;;82.47;38.25;;;2.80;99.90;;;;;;4959865;28;20118;-85
2020/12/24 04:32:01;;;;;;;69.00;33.90;;;3.00;99.90;;;;;;4960161;28;20141;-84
2020/12/24 04:34:28;;;;;;;;;;;3.00;99.90;;;;;;4960706;28;20026;-86
2020/12/24 04:36:54;;;;;;;65.22;34.17;;;3.10;99.90;;;;;;4976755;28;19906;-86
2020/12/24 04:39:19;;;;;;;69.03;35.35;;;3.20;99.90;;;;;;4977358;28;20044;-85
2020/12/24 04:41:47;;;;;;;66.35;33.92;;;3.10;99.90;;;;;;4959196;28;20475;-84
2020/12/24 04:44:13;;;;;;;82.22;35.85;;;3.10;99.90;;;;;;4959510;28;20030;-84
2020/12/24 04:46:42;;;;;;;77.47;36.45;;;3.10;99.90;;;;;;4976352;28;20031;-85
2020/12/24 04:49:09;;;;;;;69.22;35.97;;;3.10;99.90;;;;;;4959395;28;20027;-83
2020/12/24 04:51:36;;;;;;;67.57;35.53;;;3.00;99.90;;;;;;4976039;28;20082;-82
2020/12/24 04:54:03;;;;;;;79.55;36.15;;;3.00;99.90;;;;;;4959157;28;20039;-84
2020/12/24 04:56:29;;;;;;;63.92;34.45;;;3.00;99.90;;;;;;4959074;28;20030;-83
2020/12/24 04:58:55;;;;;;;71.75;32.75;;;3.00;99.90;;;;;;4959376;28;20045;-84
2020/12/24 05:01:20;;;;;;;78.50;35.95;;;2.90;99.90;;;;;;4959353;28;20050;-86
2020/12/24 05:03:47;;;;;;;69.43;34.53;;;3.00;99.90;;;;;;4976280;28;20501;-84
2020/12/24 05:06:17;;;;;;;67.13;33.60;;;3.00;99.90;;;;;;4959243;28;20121;-83
2020/12/24 05:08:56;;;;;;;74.20;35.45;;;3.10;99.90;;;;;;4958537;28;20031;-83
2020/12/24 05:11:33;;;;;;;67.60;33.20;;;3.10;99.90;;;;;;4976062;28;20193;-84
2020/12/24 05:14:25;;;;;;;67.88;34.20;;;3.10;99.90;;;;;;4975978;28;20412;-86
2020/12/24 05:17:07;;;;;;;76.60;34.22;;;3.00;99.90;;;;;;4975883;28;20031;-82
2020/12/24 05:19:35;;;;;;;66.85;35.03;;;3.00;99.90;;;;;;4976003;28;20105;-82
2020/12/24 05:22:17;;;;;;;70.75;33.63;;;3.00;99.90;;;;;;4975593;28;20035;-84
2020/12/24 05:24:44;;;;;;;73.50;34.42;;;2.90;99.90;;;;;;4958750;28;20045;-82
2020/12/24 05:27:20;;;;;;;73.53;34.17;;;2.90;99.90;;;;;;4967478;28;20029;-83
2020/12/24 05:29:48;;;;;;;72.10;33.15;;;2.80;99.90;;;;;;4995768;28;20541;-85
2020/12/24 05:32:14;;;;;;;64.13;31.90;;;2.80;99.90;;;;;;4995265;28;20110;-83
2020/12/24 05:34:40;;;;;;;71.78;32.67;;;2.70;99.90;;;;;;4977994;28;20109;-85
2020/12/24 05:37:24;;;;;;;68.10;34.67;;;2.80;99.90;;;;;;4977331;28;20030;-83
2020/12/24 05:39:50;;;;;;;72.88;33.58;;;2.80;99.90;;;;;;4994492;28;20387;-82
2020/12/24 05:42:17;;;;;;;67.03;33.90;;;2.80;99.90;;;;;;4977460;28;20474;-84
2020/12/24 05:44:43;;;;;;;65.07;33.72;;;2.80;99.90;;;;;;4977745;28;20441;-83
2020/12/24 05:47:08;;;;;;;72.78;33.13;;;2.90;99.90;;;;;;4977363;28;20022;-84
2020/12/24 05:49:35;;;;;;;69.38;33.78;;;2.90;99.90;;;;;;4994873;28;20114;-83
2020/12/24 05:52:05;;;;;;;75.80;34.05;;;3.00;99.90;;;;;;4994423;28;20539;-85
2020/12/24 05:54:34;;;;;;;92.15;34.97;;;3.10;99.90;;;;;;4994875;28;20110;-85
2020/12/24 05:57:00;;;;;;;91.70;34.83;;;3.10;99.90;;;;;;4994648;28;20390;-83
2020/12/24 05:59:31;;;;;;;72.20;34.95;;;2.90;99.90;;;;;;4977577;28;20100;-84
2020/12/24 06:02:06;;;;;;;73.20;33.40;;;2.90;99.90;;;;;;4977492;28;20116;-84
2020/12/24 06:04:38;;;;;;;80.72;33.95;;;2.90;99.90;;;;;;4977464;28;20199;-85
2020/12/24 06:07:08;;;;;;;75.82;33.85;;;3.00;99.90;;;;;;4994235;28;20389;-85
2020/12/24 06:09:38;;;;;;;67.63;34.20;;;3.00;99.90;;;;;;4976660;28;20049;-85
2020/12/24 06:12:22;;;;;;;72.82;32.45;;;3.00;99.90;;;;;;4977494;28;20570;-87
2020/12/24 06:14:56;;;;;;;77.47;33.70;;;2.90;99.90;;;;;;4978470;28;20066;-86
2020/12/24 06:17:26;;;;;;;62.60;33.03;;;2.90;99.90;;;;;;4994487;28;20036;-84
2020/12/24 06:19:53;;;;;;;65.45;33.53;;;3.00;99.90;;;;;;4977489;28;20153;-81
2020/12/24 06:22:20;;;;;;;71.20;34.72;;;3.20;99.90;;;;;;4993591;28;20077;-82
2020/12/24 06:24:57;;;;;;;114.78;55.22;;;3.10;99.90;;;;;;4994539;28;20053;-83
2020/12/24 06:27:37;;;;;;;94.95;38.08;;;3.80;99.90;;;;;;4976146;28;20077;-85
2020/12/24 06:30:05;;;;;;;67.95;37.42;;;3.10;99.90;;;;;;4938618;28;20051;-81
2020/12/24 06:32:34;;;;;;;140.35;44.38;;;2.80;99.90;;;;;;4988843;28;20042;-84
2020/12/24 06:35:01;;;;;;;84.70;37.50;;;2.50;99.90;;;;;;4959846;28;20089;-84
2020/12/24 06:37:27;;;;;;;198.85;94.70;;;2.70;99.90;;;;;;4957482;28;20026;-85
2020/12/24 06:39:54;;;;;;;102.63;54.40;;;3.40;99.90;;;;;;4957028;28;20090;-85
2020/12/24 06:42:43;;;;;;;77.88;37.50;;;3.40;99.90;;;;;;4953161;28;20061;-82
2020/12/24 06:45:30;;;;;;;67.55;33.65;;;3.40;99.90;;;;;;4954152;28;20077;-85
2020/12/24 06:48:24;;;;;;;68.80;34.17;;;3.40;99.90;;;;;;4959743;28;20030;-85
2020/12/24 06:51:00;;;;;;;64.10;34.85;;;3.10;99.90;;;;;;4994153;23;20057;-85
2020/12/24 06:53:36;;;;;;;85.32;35.28;;;3.10;99.90;;;;;;4995537;28;20104;-87
2020/12/24 06:56:16;;;;;;;79.18;36.17;;;3.30;99.90;;;;;;5008515;28;20025;-87
2020/12/24 06:59:17;;;;;;;70.03;33.60;;;3.00;99.90;;;;;;4996333;28;20033;-86
2020/12/24 07:02:04;;;;;;;86.32;35.70;;;3.00;99.90;;;;;;5017125;28;20109;-86
2020/12/24 07:04:48;;;;;;;79.57;33.45;;;3.00;99.90;;;;;;5013227;28;20034;-88
2020/12/24 07:07:14;;;;;;;71.35;33.85;;;3.00;99.90;;;;;;4992359;28;20061;-86
2020/12/24 07:09:42;;;;;;;107.15;47.60;;;3.10;99.90;;;;;;4994183;28;20022;-83
2020/12/24 07:12:08;;;;;;;88.20;41.63;;;3.60;99.90;;;;;;5007527;28;20018;-85
2020/12/24 07:18:31;;;;;;;64.57;31.90;;;3.60;99.90;;;;;;4991148;28;20030;-89
2020/12/24 07:21:37;;;;;;;;;;;;;;;;;;;;;
2020/12/24 07:27:25;;;;;;;73.80;33.88;;;3.30;99.90;;;;;;4993778;28;20106;-89
2020/12/24 07:32:41;;;;;;;70.00;33.22;;;3.40;99.90;;;;;;5006127;28;20041;-89
2020/12/24 07:35:08;;;;;;;76.30;34.15;;;3.50;99.90;;;;;;5012590;28;20037;-88
2020/12/24 07:37:38;;;;;;;80.82;36.90;;;3.40;99.90;;;;;;5012424;28;20034;-88
2020/12/24 07:40:53;;;;;;;76.57;35.50;;;3.40;99.90;;;;;;5007834;28;20405;-89
2020/12/24 07:44:03;;;;;;;79.10;34.60;;;3.20;99.90;;;;;;4996045;28;20485;-89
2020/12/24 07:46:29;;;;;;;87.03;35.88;;;3.20;99.90;;;;;;5010336;28;20536;-88
2020/12/24 07:49:05;;;;;;;85.07;39.08;;;3.20;99.90;;;;;;4990794;28;20038;-87
2020/12/24 07:54:39;;;;;;;77.85;35.75;;;3.40;99.90;;;;;;5011356;28;20040;-88
2020/12/24 07:57:14;;;;;;;77.07;35.65;;;3.40;99.90;;;;;;4992360;28;20034;-89
2020/12/24 07:59:39;;;;;;;68.55;33.13;;;3.40;99.90;;;;;;4975259;28;20030;-86
2020/12/24 08:02:14;;;;;;;85.90;37.10;;;3.40;99.90;;;;;;4974406;28;20401;-88
2020/12/24 08:04:40;;;;;;;69.82;33.45;;;3.30;99.90;;;;;;4974542;28;20038;-88
2020/12/24 08:07:10;;;;;;;82.93;35.22;;;3.40;99.90;;;;;;4974406;28;20026;-89
2020/12/24 08:09:36;;;;;;;77.00;34.58;;;3.30;99.90;;;;;;4993488;28;20034;-89
2020/12/24 08:12:26;;;;;;;69.90;33.08;;;3.30;99.90;;;;;;4991794;28;20501;-89
2020/12/24 08:18:27;;;;;;;76.88;34.13;;;3.30;99.90;;;;;;4993292;28;20040;-88
2020/12/24 08:24:34;;;;;;;68.13;33.00;;;3.40;99.90;;;;;;4921693;29;20122;-88
2020/12/24 08:27:38;;;;;;;77.28;35.28;;;3.50;99.90;;;;;;4992921;28;20166;-88
2020/12/24 08:30:27;;;;;;;73.22;35.05;;;3.50;99.90;;;;;;5030029;28;20039;-89
2020/12/24 08:33:03;;;;;;;72.60;34.42;;;3.50;99.90;;;;;;5030976;23;20482;-89
2020/12/24 09:02:27;;;;;;;65.47;31.63;;;3.50;99.90;;;;;;5006538;28;20377;-87
2020/12/24 09:37:05;;;;;;;77.88;36.70;;;3.90;99.90;;;;;;5016030;28;20484;-86
2020/12/24 09:57:36;;;;;;;65.93;32.47;;;4.20;99.90;;;;;;5058303;23;20475;-86
2020/12/24 10:05:56;;;;;;;69.72;32.70;;;4.50;99.90;;;;;;5420973;22;19917;-88
2020/12/24 10:08:29;;;;;;;68.60;32.33;;;4.20;99.90;;;;;;4993026;28;20027;-88
2020/12/24 10:11:31;;;;;;;75.93;34.05;;;4.10;99.90;;;;;;4981078;28;20041;-87
2020/12/24 10:13:57;;;;;;;72.15;31.73;;;4.20;99.90;;;;;;5006968;28;20113;-81
2020/12/24 10:19:46;;;;;;;74.32;33.75;;;5.00;99.90;;;;;;5007847;28;20037;-82
2020/12/24 10:22:14;;;;;;;72.07;33.70;;;5.20;99.90;;;;;;5012579;28;20037;-84
2020/12/24 10:27:14;;;;;;;67.90;33.33;;;5.00;99.90;;;;;;5009482;28;20057;-81
2020/12/24 10:29:46;;;;;;;78.80;35.83;;;4.20;99.90;;;;;;5011414;28;20304;-83
2020/12/24 10:32:12;;;;;;;75.05;35.75;;;4.30;99.90;;;;;;5011877;28;20013;-82
2020/12/24 10:34:37;;;;;;;78.93;36.88;;;4.60;99.90;;;;;;5009618;28;20044;-84
2020/12/24 10:37:03;;;;;;;78.85;36.40;;;4.80;99.90;;;;;;5021575;28;20400;-83
2020/12/24 10:39:30;;;;;;;75.03;36.53;;;4.90;99.90;;;;;;5031394;28;20488;-81
2020/12/24 10:41:56;;;;;;;75.53;35.22;;;4.90;99.90;;;;;;5020093;28;20029;-83
2020/12/24 10:44:22;;;;;;;77.13;36.25;;;4.70;99.90;;;;;;5011410;28;20026;-82
2020/12/24 10:46:57;;;;;;;68.53;35.35;;;4.90;99.90;;;;;;5011709;28;20029;-86
2020/12/24 10:49:28;;;;;;;77.50;36.55;;;4.90;99.90;;;;;;5032697;28;20036;-88
2020/12/24 10:51:57;;;;;;;73.78;36.25;;;5.00;99.90;;;;;;5028370;28;20018;-83
2020/12/24 10:54:23;;;;;;;80.72;36.92;;;5.10;99.90;;;;;;5025245;28;20018;-82
2020/12/24 10:56:49;;;;;;;77.50;36.28;;;5.10;99.90;;;;;;5027837;28;20080;-81
2020/12/24 10:59:16;;;;;;;75.45;36.83;;;5.20;99.90;;;;;;5022210;28;20032;-82
2020/12/24 11:01:46;;;;;;;87.75;38.13;;;5.20;99.90;;;;;;5027104;28;20024;-83
2020/12/24 11:04:12;;;;;;;75.53;36.13;;;5.30;99.90;;;;;;5011153;28;20044;-82
2020/12/24 11:06:42;;;;;;;78.88;35.92;;;5.40;99.90;;;;;;5012454;28;20682;-81
2020/12/24 11:09:10;;;;;;;81.75;37.60;;;5.30;99.90;;;;;;5009833;28;20021;-82
2020/12/24 11:11:37;;;;;;;80.07;37.33;;;4.70;99.90;;;;;;5012763;28;20030;-81
2020/12/24 11:14:03;;;;;;;82.65;38.22;;;5.00;99.90;;;;;;5011170;28;20084;-80
2020/12/24 11:16:29;;;;;;;88.20;38.92;;;4.90;99.90;;;;;;5011298;28;20049;-83
2020/12/24 11:18:54;;;;;;;80.45;37.35;;;4.60;99.90;;;;;;5012208;28;20065;-82
2020/12/24 11:21:39;;;;;;;77.32;37.40;;;5.00;99.90;;;;;;5012195;28;20068;-82
2020/12/24 11:24:06;;;;;;;83.13;38.10;;;5.20;99.90;;;;;;5011085;28;20038;-82
2020/12/24 11:26:33;;;;;;;85.38;38.45;;;5.30;99.90;;;;;;5010685;28;20477;-81
2020/12/24 11:28:59;;;;;;;83.30;39.70;;;5.40;99.90;;;;;;5013550;28;20034;-81
2020/12/24 11:31:30;;;;;;;91.75;41.00;;;5.40;99.90;;;;;;5031146;28;20036;-82
2020/12/24 11:33:57;;;;;;;78.10;38.20;;;5.30;99.90;;;;;;5013415;28;20104;-83
2020/12/24 11:36:24;;;;;;;79.55;39.25;;;5.40;99.90;;;;;;5020035;28;20023;-83
2020/12/24 11:38:50;;;;;;;85.05;41.60;;;5.40;99.90;;;;;;5032574;28;20372;-82
2020/12/24 11:41:19;;;;;;;94.47;39.67;;;5.50;99.90;;;;;;5051891;28;20029;-85
2020/12/24 11:43:45;;;;;;;86.72;40.28;;;5.70;99.90;;;;;;5048786;28;20036;-83
2020/12/24 11:46:12;;;;;;;80.60;38.80;;;5.60;99.90;;;;;;5032204;28;20028;-80
2020/12/24 11:48:38;;;;;;;78.80;38.95;;;5.90;99.90;;;;;;5013848;28;20405;-87
2020/12/24 11:51:14;;;;;;;77.13;37.05;;;6.50;99.90;;;;;;5032335;28;20226;-80
2020/12/24 11:53:41;;;;;;;74.10;37.40;;;7.00;99.90;;;;;;5031297;28;20022;-81
2020/12/24 11:56:15;;;;;;;82.25;38.30;;;6.80;99.90;;;;;;5031818;28;20578;-80
2020/12/24 11:58:41;;;;;;;81.13;39.35;;;6.50;99.90;;;;;;5013137;28;20425;-81
2020/12/24 12:01:07;;;;;;;92.93;42.65;;;7.10;99.90;;;;;;5013690;28;20025;-79
2020/12/24 12:03:32;;;;;;;88.88;42.20;;;7.00;99.90;;;;;;5013620;28;20029;-79
2020/12/24 12:05:58;;;;;;;90.22;42.67;;;7.00;99.90;;;;;;5031469;28;20036;-79
2020/12/24 12:08:24;;;;;;;90.40;44.17;;;6.70;99.90;;;;;;5031030;28;20427;-78
2020/12/24 12:10:50;;;;;;;92.88;43.60;;;6.60;99.90;;;;;;5031040;28;20037;-81
2020/12/24 12:13:15;;;;;;;90.25;43.78;;;6.50;99.90;;;;;;5013389;28;20017;-80
2020/12/24 12:15:42;;;;;;;87.82;43.00;;;6.60;99.90;;;;;;5013423;28;20030;-81
2020/12/24 12:18:08;;;;;;;94.13;44.92;;;6.60;99.90;;;;;;5012586;28;20091;-81
2020/12/24 12:20:35;;;;;;;89.07;43.28;;;6.60;99.90;;;;;;5031342;28;20052;-81
2020/12/24 12:23:01;;;;;;;95.95;43.15;;;6.30;99.90;;;;;;5012992;28;20108;-81
2020/12/24 12:25:27;;;;;;;85.30;43.05;;;6.50;99.90;;;;;;5030928;28;20048;-80
2020/12/24 12:27:53;;;;;;;90.00;43.85;;;6.20;99.90;;;;;;5030804;28;20084;-81
2020/12/24 12:30:19;;;;;;;92.18;44.00;;;6.20;99.90;;;;;;5030892;28;20392;-79
2020/12/24 12:32:45;;;;;;;93.40;44.90;;;6.30;99.90;;;;;;5013202;28;20099;-81
2020/12/24 12:35:10;;;;;;;96.25;46.05;;;6.10;99.90;;;;;;5013252;28;20480;-81
2020/12/24 12:37:36;;;;;;;104.28;50.38;;;5.90;99.90;;;;;;5030914;28;20063;-80
2020/12/24 12:40:07;;;;;;;116.45;50.67;;;5.90;99.90;;;;;;5030533;28;20037;-80
2020/12/24 12:42:33;;;;;;;102.25;49.15;;;5.90;99.90;;;;;;5013217;28;20350;-80
2020/12/24 12:44:59;;;;;;;115.72;54.50;;;6.10;99.90;;;;;;5030544;28;20531;-81
2020/12/24 12:47:25;;;;;;;111.00;49.88;;;6.20;99.90;;;;;;5030762;28;20036;-80
2020/12/24 12:49:52;;;;;;;93.07;44.20;;;6.50;99.90;;;;;;5015654;28;20056;-78
2020/12/24 12:52:18;;;;;;;108.85;51.58;;;6.90;99.90;;;;;;5034782;28;20320;-80
2020/12/24 12:54:45;;;;;;;117.90;53.65;;;7.40;99.90;;;;;;5034418;28;20021;-80
2020/12/24 12:57:11;;;;;;;113.30;53.90;;;7.30;99.90;;;;;;5034871;28;20059;-81
2020/12/24 12:59:37;;;;;;;122.38;54.03;;;7.20;99.90;;;;;;5016587;28;20025;-81
2020/12/24 13:02:03;;;;;;;121.20;53.75;;;7.30;99.90;;;;;;5016629;28;20022;-82
2020/12/24 13:04:29;;;;;;;116.30;54.50;;;7.90;99.90;;;;;;5015497;28;20060;-83
2020/12/24 13:06:54;;;;;;;117.78;55.17;;;8.10;99.90;;;;;;5032605;28;20100;-81
2020/12/24 13:09:20;;;;;;;112.53;52.30;;;8.20;99.90;;;;;;5033396;28;20465;-80
2020/12/24 13:11:47;;;;;;;115.55;52.28;;;8.20;99.90;;;;;;5015483;28;20432;-82
2020/12/24 13:14:18;;;;;;;106.07;51.38;;;8.50;99.90;;;;;;5033460;28;20014;-83
2020/12/24 13:16:47;;;;;;;104.65;51.67;;;8.50;99.90;;;;;;5034710;28;20024;-80
2020/12/24 13:19:14;;;;;;;99.60;49.58;;;8.60;99.90;;;;;;5016608;28;20416;-80
2020/12/24 13:21:40;;;;;;;99.72;50.53;;;8.50;99.90;;;;;;5016395;28;20025;-83
2020/12/24 13:24:05;;;;;;;97.63;48.70;;;8.80;99.90;;;;;;5034053;28;20135;-81
2020/12/24 13:26:31;;;;;;;110.93;50.22;;;9.30;99.90;;;;;;5033493;28;20474;-82
2020/12/24 13:28:57;;;;;;;108.38;50.45;;;9.00;99.90;;;;;;5015084;28;20025;-82
2020/12/24 13:31:23;;;;;;;103.07;50.55;;;9.40;99.90;;;;;;5015204;28;20020;-81
2020/12/24 13:33:48;;;;;;;99.32;48.78;;;9.60;99.90;;;;;;5033072;28;20462;-82
2020/12/24 13:36:14;;;;;;;94.65;48.05;;;9.50;99.90;;;;;;5015135;28;20358;-82
2020/12/24 13:38:40;;;;;;;100.57;52.00;;;9.60;99.90;;;;;;5014755;28;20078;-82
2020/12/24 13:41:06;;;;;;;101.28;49.55;;;9.30;99.90;;;;;;5033055;28;20025;-83
2020/12/24 13:43:32;;;;;;;101.93;48.92;;;9.00;99.90;;;;;;5032748;28;20030;-83
2020/12/24 13:45:57;;;;;;;95.22;48.13;;;8.70;99.90;;;;;;5015200;28;20048;-83
2020/12/24 13:48:23;;;;;;;92.93;45.35;;;8.30;99.90;;;;;;5032221;28;20477;-82
2020/12/24 13:50:51;;;;;;;94.15;47.60;;;7.70;99.90;;;;;;5032268;28;20442;-82
2020/12/24 13:53:17;;;;;;;94.75;47.70;;;7.20;99.90;;;;;;5032632;28;20063;-81
2020/12/24 13:55:43;;;;;;;103.63;47.45;;;6.80;99.90;;;;;;5014887;28;20436;-81
2020/12/24 13:58:09;;;;;;;100.90;50.58;;;6.60;99.90;;;;;;5014156;28;20025;-82
2020/12/24 14:00:37;;;;;;;94.70;46.88;;;6.40;99.90;;;;;;5014865;28;20403;-82
2020/12/24 14:03:03;;;;;;;93.70;46.55;;;6.10;99.90;;;;;;5015841;28;20025;-83
2020/12/24 14:05:29;;;;;;;101.38;47.35;;;5.80;99.90;;;;;;5031705;28;20361;-82
2020/12/24 14:07:55;;;;;;;97.85;45.85;;;5.70;99.90;;;;;;5032399;28;20382;-81
2020/12/24 14:10:21;;;;;;;103.72;46.58;;;5.70;99.90;;;;;;5032461;28;20559;-81
2020/12/24 14:12:46;;;;;;;100.63;46.67;;;5.60;99.90;;;;;;5032219;28;20024;-83
2020/12/24 14:15:37;;;;;;;94.15;44.13;;;5.60;99.90;;;;;;5075204;23;20387;-83
2020/12/24 14:18:04;;;;;;;101.10;46.20;;;5.50;99.90;;;;;;4970831;28;20073;-84
2020/12/24 14:20:47;;;;;;;99.22;45.38;;;5.40;99.90;;;;;;4973550;28;20027;-83
2020/12/24 14:23:14;;;;;;;94.00;43.80;;;5.50;99.90;;;;;;4974174;28;20089;-84
2020/12/24 14:25:41;;;;;;;102.50;43.78;;;5.60;99.90;;;;;;4973252;28;20421;-82
2020/12/24 14:28:07;;;;;;;87.72;40.63;;;5.40;99.90;;;;;;4971452;28;20607;-81
2020/12/24 14:30:33;;;;;;;90.75;42.50;;;5.30;99.90;;;;;;4970539;28;20491;-82
2020/12/24 14:32:59;;;;;;;86.55;41.30;;;5.40;99.90;;;;;;4973044;28;20139;-84